createdAt,value
2023-03-20T00:02:21.418Z,8.70
2023-03-20T00:04:51.560Z,8.60
2023-03-20T00:07:18.418Z,8.50
2023-03-20T00:09:46.088Z,8.40
2023-03-20T00:12:22.287Z,8.40
2023-03-20T00:14:49.140Z,8.40
2023-03-20T00:17:20.733Z,8.30
2023-03-20T00:19:48.330Z,8.20
2023-03-20T00:22:17.656Z,8.10
2023-03-20T00:24:44.696Z,8.00
2023-03-20T00:27:14.430Z,8.00
2023-03-20T00:29:44.762Z,7.80
2023-03-20T00:32:15.397Z,8.00
2023-03-20T00:34:42.881Z,7.80
2023-03-20T00:37:12.007Z,7.80
2023-03-20T00:39:39.425Z,7.90
2023-03-20T00:42:10.871Z,8.10
2023-03-20T00:44:49.640Z,8.10
2023-03-20T00:47:22.031Z,8.10
2023-03-20T00:49:50.845Z,8.20
2023-03-20T00:52:19.547Z,8.10
2023-03-20T00:54:46.784Z,8.10
2023-03-20T00:57:19.557Z,8.00
2023-03-20T00:59:57.068Z,8.00
2023-03-20T01:02:29.224Z,8.00
2023-03-20T01:04:56.902Z,7.80
2023-03-20T01:07:23.709Z,7.80
2023-03-20T01:09:52.776Z,7.70
2023-03-20T01:12:19.912Z,7.80
2023-03-20T01:14:58.484Z,7.70
2023-03-20T01:17:27.913Z,7.70
2023-03-20T01:19:56.002Z,7.70
2023-03-20T01:22:22.982Z,7.80
2023-03-20T01:24:52.798Z,8.10
2023-03-20T01:27:23.953Z,8.10
2023-03-20T01:29:50.789Z,8.20
2023-03-20T01:32:19.407Z,8.20
2023-03-20T01:34:50.364Z,8.20
2023-03-20T01:37:28.245Z,8.30
2023-03-20T01:39:56.835Z,8.40
2023-03-20T01:42:24.083Z,8.40
2023-03-20T01:44:51.912Z,8.30
2023-03-20T01:47:23.615Z,8.30
2023-03-20T01:50:18.721Z,8.40
2023-03-20T01:52:49.245Z,8.40
2023-03-20T01:55:16.480Z,8.40
2023-03-20T01:57:46.597Z,8.40
2023-03-20T02:00:17.173Z,8.30
2023-03-20T02:02:48.780Z,8.30
2023-03-20T02:05:19.808Z,8.30
2023-03-20T02:07:52.958Z,8.30
2023-03-20T02:10:20.741Z,8.30
2023-03-20T02:12:48.425Z,8.20
2023-03-20T02:15:17.064Z,8.20
2023-03-20T02:17:44.494Z,8.30
2023-03-20T02:20:20.170Z,8.30
2023-03-20T02:23:30.535Z,8.30
2023-03-20T02:26:18.633Z,8.30
2023-03-20T02:29:17.046Z,8.40
2023-03-20T02:32:22.022Z,8.40
2023-03-20T02:35:08.024Z,8.40
2023-03-20T02:38:06.836Z,8.40
2023-03-20T02:40:36.950Z,8.40
2023-03-20T02:43:21.753Z,8.50
2023-03-20T02:46:10.051Z,8.50
2023-03-20T02:48:50.226Z,8.50
2023-03-20T02:51:25.300Z,8.50
2023-03-20T02:53:53.669Z,8.40
2023-03-20T02:56:37.966Z,8.50
2023-03-20T02:59:26.283Z,8.60
2023-03-20T03:02:07.664Z,8.50
2023-03-20T03:04:46.259Z,8.40
2023-03-20T03:07:15.272Z,8.40
2023-03-20T03:09:50.305Z,8.40
2023-03-20T03:12:42.494Z,8.50
2023-03-20T03:15:32.569Z,8.50
2023-03-20T03:18:00.477Z,8.50
2023-03-20T03:20:32.493Z,8.40
2023-03-20T03:23:00.883Z,8.40
2023-03-20T03:25:33.022Z,8.50
2023-03-20T03:28:49.685Z,8.50
2023-03-20T03:31:18.751Z,8.50
2023-03-20T03:33:55.697Z,8.50
2023-03-20T03:36:44.613Z,8.50
2023-03-20T03:39:57.640Z,8.40
2023-03-20T03:42:51.241Z,8.50
2023-03-20T03:45:52.320Z,8.60
2023-03-20T03:48:22.934Z,8.50
2023-03-20T03:50:57.958Z,8.50
2023-03-20T03:53:36.508Z,8.50
2023-03-20T03:56:09.958Z,8.60
2023-03-20T03:58:49.590Z,8.50
2023-03-20T04:01:23.671Z,8.50
2023-03-20T04:03:56.215Z,8.50
2023-03-20T04:06:28.599Z,8.50
2023-03-20T04:08:55.618Z,8.50
2023-03-20T04:11:29.148Z,8.50
2023-03-20T04:13:56.419Z,8.50
2023-03-20T04:16:24.848Z,8.50
2023-03-20T04:18:52.085Z,8.50
2023-03-20T04:21:19.745Z,8.50
2023-03-20T04:23:52.506Z,8.50
2023-03-20T04:26:19.331Z,10.60
2023-03-20T04:28:47.069Z,8.50
2023-03-20T04:31:14.195Z,8.50
2023-03-20T04:33:42.079Z,8.50
2023-03-20T04:36:10.430Z,8.50
2023-03-20T04:38:37.416Z,8.50
2023-03-20T04:41:05.600Z,8.50
2023-03-20T04:43:35.419Z,8.50
2023-03-20T04:46:07.466Z,8.50
2023-03-20T04:48:34.488Z,8.50
2023-03-20T04:51:02.729Z,8.40
2023-03-20T04:53:29.548Z,8.40
2023-03-20T04:55:56.654Z,8.40
2023-03-20T04:58:24.898Z,8.30
2023-03-20T05:00:51.743Z,8.40
2023-03-20T05:03:23.823Z,8.30
2023-03-20T05:05:51.319Z,8.30
2023-03-20T05:08:18.317Z,8.30
2023-03-20T05:10:45.482Z,8.30
2023-03-20T05:13:12.464Z,8.30
2023-03-20T05:15:39.224Z,8.30
2023-03-20T05:18:05.991Z,8.30
2023-03-20T05:20:32.966Z,8.30
2023-03-20T05:22:59.760Z,8.30
2023-03-20T05:25:27.099Z,8.30
2023-03-20T05:27:57.316Z,8.20
2023-03-20T05:30:24.655Z,8.20
2023-03-20T05:32:52.732Z,8.20
2023-03-20T05:35:20.050Z,8.20
2023-03-20T05:37:49.843Z,8.20
2023-03-20T05:40:17.132Z,8.20
2023-03-20T05:42:45.981Z,8.20
2023-03-20T05:45:13.019Z,8.20
2023-03-20T05:47:39.791Z,8.20
2023-03-20T05:50:07.347Z,8.20
2023-03-20T05:52:34.349Z,8.20
2023-03-20T05:55:01.134Z,8.20
2023-03-20T05:57:28.438Z,8.20
2023-03-20T05:59:55.325Z,8.20
2023-03-20T06:02:25.477Z,8.20
2023-03-20T06:04:52.581Z,8.30
2023-03-20T06:07:20.214Z,8.30
2023-03-20T06:09:47.393Z,8.20
2023-03-20T06:12:14.626Z,8.20
2023-03-20T06:14:41.381Z,8.20
2023-03-20T06:17:08.452Z,8.20
2023-03-20T06:19:39.404Z,8.20
2023-03-20T06:22:07.001Z,8.20
2023-03-20T06:24:34.381Z,8.30
2023-03-20T06:27:01.620Z,8.30
2023-03-20T06:29:29.298Z,8.30
2023-03-20T06:31:56.076Z,8.30
2023-03-20T06:34:22.884Z,8.40
2023-03-20T06:36:50.184Z,8.40
2023-03-20T06:39:17.134Z,8.40
2023-03-20T06:41:43.945Z,8.50
2023-03-20T06:44:11.548Z,8.50
2023-03-20T06:46:38.725Z,8.50
2023-03-20T06:49:06.365Z,8.50
2023-03-20T06:51:33.659Z,8.50
2023-03-20T06:54:07.250Z,8.60
2023-03-20T06:56:34.269Z,8.50
2023-03-20T06:59:01.411Z,8.50
2023-03-20T07:01:29.324Z,8.50
2023-03-20T07:03:56.492Z,8.50
2023-03-20T07:06:23.376Z,8.60
2023-03-20T07:08:53.051Z,8.70
2023-03-20T07:11:19.934Z,8.60
2023-03-20T07:13:49.699Z,8.60
2023-03-20T07:16:17.223Z,8.60
2023-03-20T07:18:44.628Z,8.60
2023-03-20T07:21:18.760Z,8.50
2023-03-20T07:23:45.821Z,8.60
2023-03-20T07:26:15.936Z,8.60
2023-03-20T07:28:42.740Z,8.60
2023-03-20T07:31:20.817Z,8.70
2023-03-20T07:33:48.305Z,8.70
2023-03-20T07:36:15.452Z,8.70
2023-03-20T07:38:42.658Z,8.80
2023-03-20T07:41:09.964Z,9.00
2023-03-20T07:43:36.977Z,9.20
2023-03-20T07:46:08.241Z,9.20
2023-03-20T07:48:36.866Z,9.30
2023-03-20T07:51:03.930Z,9.20
2023-03-20T07:53:31.034Z,9.20
2023-03-20T07:55:58.790Z,9.10
2023-03-20T07:58:26.076Z,9.10
2023-03-20T08:00:56.731Z,9.00
2023-03-20T08:03:23.778Z,9.10
2023-03-20T08:05:50.928Z,9.10
2023-03-20T08:08:18.722Z,9.10
2023-03-20T08:10:46.455Z,9.00
2023-03-20T08:13:13.352Z,9.00
2023-03-20T08:15:40.690Z,8.90
2023-03-20T08:18:08.014Z,8.90
2023-03-20T08:20:34.845Z,8.90
2023-03-20T08:23:02.221Z,9.10
2023-03-20T08:25:33.602Z,9.10
2023-03-20T08:28:01.930Z,9.20
2023-03-20T08:30:29.445Z,9.30
2023-03-20T08:32:58.368Z,9.40
2023-03-20T08:35:33.022Z,9.40
2023-03-20T08:38:01.446Z,9.80
2023-03-20T08:40:28.568Z,9.90
2023-03-20T08:42:55.714Z,10.00
2023-03-20T08:45:26.259Z,10.10
2023-03-20T08:47:53.852Z,10.20
2023-03-20T08:50:21.438Z,10.10
2023-03-20T08:52:48.483Z,10.10
2023-03-20T08:55:16.938Z,10.20
2023-03-20T08:57:46.951Z,10.20
2023-03-20T09:00:16.530Z,10.20
2023-03-20T09:02:43.572Z,10.30
2023-03-20T09:05:11.316Z,10.10
2023-03-20T09:07:38.540Z,10.10
2023-03-20T09:10:06.100Z,10.50
2023-03-20T09:12:33.523Z,10.70
2023-03-20T09:15:01.827Z,10.20
2023-03-20T09:17:28.757Z,9.80
2023-03-20T09:19:57.838Z,9.70
2023-03-20T09:22:28.840Z,9.70
2023-03-20T09:24:55.713Z,9.60
2023-03-20T09:27:22.793Z,9.80
2023-03-20T09:29:50.037Z,9.90
2023-03-20T09:32:17.243Z,9.80
2023-03-20T09:34:44.070Z,9.80
2023-03-20T09:37:11.120Z,9.60
2023-03-20T09:39:38.452Z,9.60
2023-03-20T09:42:29.425Z,9.90
2023-03-20T09:45:08.917Z,10.00
2023-03-20T09:48:33.802Z,10.20
2023-03-20T09:51:21.658Z,10.00
2023-03-20T09:53:54.954Z,10.00
2023-03-20T09:56:25.976Z,9.90
2023-03-20T09:58:59.040Z,9.60
2023-03-20T10:01:44.952Z,9.70
2023-03-20T10:04:12.753Z,9.60
2023-03-20T10:06:40.909Z,9.80
2023-03-20T10:09:21.443Z,9.80
2023-03-20T10:12:09.380Z,9.90
2023-03-20T10:15:04.228Z,9.90
2023-03-20T10:18:09.366Z,9.80
2023-03-20T10:20:40.783Z,10.00
2023-03-20T10:23:22.435Z,10.20
2023-03-20T10:26:00.665Z,10.50
2023-03-20T10:28:43.702Z,10.80
2023-03-20T10:31:30.134Z,10.50
2023-03-20T10:34:18.381Z,10.60
2023-03-20T10:37:02.002Z,10.50
2023-03-20T10:39:50.542Z,10.40
2023-03-20T10:42:29.111Z,10.30
2023-03-20T10:45:33.400Z,10.30
2023-03-20T10:48:06.837Z,10.40
2023-03-20T10:50:42.502Z,10.50
2023-03-20T10:53:21.691Z,10.50
2023-03-20T10:55:49.650Z,10.40
2023-03-20T10:58:24.147Z,10.70
2023-03-20T11:00:51.369Z,10.60
2023-03-20T11:03:26.363Z,11.00
2023-03-20T11:06:09.732Z,11.00
2023-03-20T11:08:41.286Z,11.00
2023-03-20T11:11:09.152Z,10.70
2023-03-20T11:13:41.244Z,11.00
2023-03-20T11:16:31.831Z,10.70
2023-03-20T11:19:07.139Z,10.70
2023-03-20T11:21:52.954Z,10.90
2023-03-20T11:24:25.943Z,10.90
2023-03-20T11:26:53.313Z,10.90
2023-03-20T11:29:35.146Z,10.70
2023-03-20T11:32:28.561Z,10.70
2023-03-20T11:34:58.932Z,10.80
2023-03-20T11:37:34.195Z,10.80
2023-03-20T11:40:23.877Z,11.00
2023-03-20T11:42:55.873Z,11.00
2023-03-20T11:45:23.952Z,10.90
2023-03-20T11:47:52.864Z,11.00
2023-03-20T11:50:26.663Z,11.30
2023-03-20T11:52:54.150Z,11.50
2023-03-20T11:55:30.176Z,11.50
2023-03-20T11:58:00.660Z,11.40
2023-03-20T12:00:41.675Z,11.10
2023-03-20T12:03:36.441Z,11.50
2023-03-20T12:06:09.750Z,11.60
2023-03-20T12:08:40.126Z,12.00
2023-03-20T12:11:40.062Z,11.90
2023-03-20T12:14:23.814Z,11.60
2023-03-20T12:16:55.911Z,11.30
2023-03-20T12:19:29.182Z,11.30
2023-03-20T12:22:15.837Z,11.50
2023-03-20T12:24:51.830Z,11.50
2023-03-20T12:27:49.017Z,11.30
2023-03-20T12:30:29.908Z,11.40
2023-03-20T12:33:30.235Z,11.30
2023-03-20T12:35:58.640Z,11.10
2023-03-20T12:38:33.641Z,11.00
2023-03-20T12:41:12.503Z,11.00
2023-03-20T12:44:04.149Z,11.10
2023-03-20T12:47:01.696Z,11.40
2023-03-20T12:49:43.210Z,11.40
2023-03-20T12:52:19.484Z,11.20
2023-03-20T12:55:13.979Z,11.10
2023-03-20T12:57:46.543Z,11.20
2023-03-20T13:00:23.762Z,11.10
2023-03-20T13:03:11.779Z,11.10
2023-03-20T13:06:04.434Z,11.10
2023-03-20T13:08:45.302Z,11.20
2023-03-20T13:11:27.218Z,11.00
2023-03-20T13:14:03.823Z,11.00
2023-03-20T13:16:55.031Z,10.80
2023-03-20T13:19:53.053Z,10.90
2023-03-20T13:22:43.130Z,10.80
2023-03-20T13:25:43.826Z,10.90
2023-03-20T13:28:31.122Z,10.80
2023-03-20T13:31:32.193Z,10.80
2023-03-20T13:34:23.505Z,10.80
2023-03-20T13:37:19.935Z,10.80
2023-03-20T13:40:18.010Z,10.60
2023-03-20T13:43:02.356Z,10.70
2023-03-20T13:45:38.275Z,10.80
2023-03-20T13:48:32.245Z,10.90
2023-03-20T13:51:23.892Z,10.90
2023-03-20T13:53:59.959Z,10.60
2023-03-20T13:56:38.927Z,10.80
2023-03-20T13:59:24.577Z,10.80
2023-03-20T14:02:07.935Z,10.60
2023-03-20T14:04:35.414Z,10.50
2023-03-20T14:07:02.547Z,10.40
2023-03-20T14:09:33.657Z,10.40
2023-03-20T14:12:09.974Z,10.70
2023-03-20T14:14:50.058Z,10.70
2023-03-20T14:17:32.262Z,10.90
2023-03-20T14:20:29.726Z,10.70
2023-03-20T14:22:57.823Z,10.60
2023-03-20T14:25:25.935Z,10.70
2023-03-20T14:28:11.416Z,10.90
2023-03-20T14:30:46.678Z,10.60
2023-03-20T14:33:13.660Z,10.40
2023-03-20T14:35:51.435Z,10.30
2023-03-20T14:38:26.192Z,10.40
2023-03-20T14:41:16.142Z,10.20
2023-03-20T14:44:08.883Z,10.30
2023-03-20T14:47:04.731Z,10.30
2023-03-20T14:49:44.373Z,10.20
2023-03-20T14:52:26.442Z,10.10
2023-03-20T14:54:54.800Z,10.00
2023-03-20T14:57:52.780Z,10.00
2023-03-20T15:00:27.782Z,10.10
2023-03-20T15:03:08.610Z,10.00
2023-03-20T15:05:39.214Z,9.90
2023-03-20T15:08:25.717Z,9.70
2023-03-20T15:11:02.066Z,9.70
2023-03-20T15:13:31.080Z,9.80
2023-03-20T15:16:08.856Z,9.70
2023-03-20T15:18:46.586Z,9.60
2023-03-20T15:21:35.433Z,9.60
2023-03-20T15:24:03.033Z,9.60
2023-03-20T15:26:33.098Z,9.70
2023-03-20T15:29:11.049Z,9.60
2023-03-20T15:31:41.030Z,9.60
2023-03-20T15:34:14.941Z,9.50
2023-03-20T15:36:43.289Z,9.40
2023-03-20T15:39:13.402Z,9.40
2023-03-20T15:41:40.605Z,9.30
2023-03-20T15:44:20.959Z,9.40
2023-03-20T15:47:03.909Z,9.40
2023-03-20T15:49:33.742Z,9.40
2023-03-20T15:52:05.826Z,9.50
2023-03-20T15:54:34.571Z,9.60
2023-03-20T15:57:03.124Z,9.60
2023-03-20T15:59:34.215Z,9.60
2023-03-20T16:02:02.000Z,9.60
2023-03-20T16:04:29.179Z,9.40
2023-03-20T16:07:01.050Z,9.50
2023-03-20T16:09:30.285Z,9.40
2023-03-20T16:12:03.222Z,9.40
2023-03-20T16:14:33.149Z,9.40
2023-03-20T16:17:03.625Z,9.30
2023-03-20T16:19:30.727Z,9.30
2023-03-20T16:22:02.206Z,9.30
2023-03-20T16:24:31.698Z,9.30
2023-03-20T16:26:59.107Z,9.20
2023-03-20T16:29:27.890Z,9.20
2023-03-20T16:32:08.111Z,9.20
2023-03-20T16:34:38.300Z,9.20
2023-03-20T16:37:26.547Z,9.10
2023-03-20T16:40:06.020Z,9.10
2023-03-20T16:42:33.821Z,9.10
2023-03-20T16:45:06.394Z,9.00
2023-03-20T16:47:40.857Z,9.00
2023-03-20T16:50:12.720Z,8.90
2023-03-20T16:52:42.334Z,8.90
2023-03-20T16:55:19.502Z,8.90
2023-03-20T16:57:49.722Z,8.90
2023-03-20T17:00:41.872Z,8.90
2023-03-20T17:03:24.760Z,8.90
2023-03-20T17:05:56.709Z,8.90
2023-03-20T17:08:31.537Z,8.90
2023-03-20T17:11:03.514Z,8.80
2023-03-20T17:13:30.279Z,8.80
2023-03-20T17:15:57.261Z,8.80
2023-03-20T17:18:24.278Z,8.80
2023-03-20T17:20:51.327Z,8.80
2023-03-20T17:23:21.549Z,8.70
2023-03-20T17:25:49.777Z,8.80
2023-03-20T17:28:23.392Z,8.60
2023-03-20T17:30:51.665Z,8.60
2023-03-20T17:33:21.143Z,8.70
2023-03-20T17:35:49.760Z,8.60
2023-03-20T17:38:19.452Z,8.50
2023-03-20T17:40:46.264Z,8.40
2023-03-20T17:43:15.450Z,8.50
2023-03-20T17:45:43.334Z,8.40
2023-03-20T17:48:21.026Z,8.50
2023-03-20T17:50:51.500Z,8.40
2023-03-20T17:53:29.234Z,8.40
2023-03-20T17:55:56.321Z,8.30
2023-03-20T17:58:24.440Z,8.30
2023-03-20T18:00:53.405Z,8.30
2023-03-20T18:03:23.273Z,8.30
2023-03-20T18:05:51.292Z,8.30
2023-03-20T18:08:21.529Z,8.20
2023-03-20T18:10:50.616Z,8.20
2023-03-20T18:13:21.022Z,8.20
2023-03-20T18:15:55.507Z,8.20
2023-03-20T18:18:24.196Z,8.20
2023-03-20T18:20:52.704Z,8.20
2023-03-20T18:23:19.637Z,8.20
2023-03-20T18:25:46.483Z,8.20
2023-03-20T18:28:20.784Z,8.20
2023-03-20T18:30:48.965Z,8.20
2023-03-20T18:33:16.809Z,8.20
2023-03-20T18:35:44.295Z,8.20
2023-03-20T18:38:13.952Z,8.20
2023-03-20T18:40:42.675Z,8.20
2023-03-20T18:43:11.099Z,8.20
2023-03-20T18:45:39.691Z,8.20
2023-03-20T18:48:07.210Z,8.20
2023-03-20T18:50:41.129Z,8.20
2023-03-20T18:53:09.783Z,8.20
2023-03-20T18:55:38.207Z,8.20
2023-03-20T18:58:06.484Z,8.20
2023-03-20T19:00:40.201Z,8.10
2023-03-20T19:03:11.970Z,8.10
2023-03-20T19:05:39.057Z,8.00
2023-03-20T19:08:06.709Z,7.80
2023-03-20T19:10:44.876Z,7.90
2023-03-20T19:13:18.316Z,7.80
2023-03-20T19:15:46.587Z,7.80
2023-03-20T19:18:40.242Z,7.80
2023-03-20T19:21:10.007Z,7.70
2023-03-20T19:23:38.649Z,7.70
2023-03-20T19:26:13.646Z,7.70
2023-03-20T19:28:41.944Z,7.70
2023-03-20T19:31:15.702Z,7.70
2023-03-20T19:33:43.514Z,7.70
2023-03-20T19:36:31.712Z,7.70
2023-03-20T19:39:05.770Z,7.60
2023-03-20T19:41:33.065Z,7.60
2023-03-20T19:44:01.375Z,7.70
2023-03-20T19:46:41.143Z,7.60
2023-03-20T19:49:19.952Z,7.50
2023-03-20T19:51:48.983Z,7.50
2023-03-20T19:54:23.909Z,7.60
2023-03-20T19:56:51.069Z,7.50
2023-03-20T19:59:20.903Z,7.60
2023-03-20T20:01:48.303Z,7.50
2023-03-20T20:04:16.653Z,7.50
2023-03-20T20:06:47.656Z,7.50
2023-03-20T20:09:18.108Z,7.40
2023-03-20T20:11:45.203Z,7.50
2023-03-20T20:14:14.953Z,7.50
2023-03-20T20:16:46.077Z,7.50
2023-03-20T20:19:13.395Z,7.50
2023-03-20T20:24:30.725Z,7.50
2023-03-20T20:27:15.231Z,7.50
2023-03-20T20:29:52.589Z,7.40
2023-03-20T20:32:23.484Z,7.50
2023-03-20T20:38:28.255Z,7.50
2023-03-20T20:40:30.231Z,7.50
2023-03-20T20:43:01.909Z,7.50
2023-03-20T20:45:33.342Z,7.50
2023-03-20T20:48:01.553Z,7.50
2023-03-20T20:50:30.505Z,7.50
2023-03-20T20:52:58.611Z,7.60
2023-03-20T20:55:25.542Z,7.60
2023-03-20T20:57:55.570Z,7.60
2023-03-20T21:00:41.061Z,7.70
2023-03-20T21:03:12.685Z,7.70
2023-03-20T21:05:43.246Z,7.80
2023-03-20T21:08:12.118Z,7.80
2023-03-20T21:10:39.880Z,7.80
2023-03-20T21:13:08.443Z,7.90
2023-03-20T21:15:35.535Z,7.90
2023-03-20T21:18:02.630Z,7.90
2023-03-20T21:20:34.197Z,8.00
2023-03-20T21:23:01.537Z,8.00
2023-03-20T21:25:39.540Z,7.90
2023-03-20T21:28:08.614Z,8.00
2023-03-20T21:30:36.048Z,7.90
2023-03-20T21:33:03.260Z,8.00
2023-03-20T21:35:30.835Z,8.00
2023-03-20T21:38:51.234Z,7.90
2023-03-20T21:40:45.154Z,7.90
2023-03-20T21:43:13.397Z,8.00
2023-03-20T21:49:43.093Z,8.00
2023-03-20T22:00:14.950Z,8.10
2023-03-20T22:02:29.064Z,8.10
2023-03-20T22:05:41.699Z,8.20
2023-03-20T22:08:57.753Z,8.20
2023-03-20T22:16:58.192Z,8.10
2023-03-20T22:22:37.416Z,8.20
2023-03-20T22:25:15.929Z,8.20
2023-03-20T22:27:56.669Z,8.20
2023-03-20T22:31:01.669Z,8.20
2023-03-20T22:33:44.590Z,8.20
2023-03-20T22:46:55.648Z,8.20
2023-03-20T22:49:25.313Z,8.20
2023-03-20T22:52:08.335Z,8.20
2023-03-20T22:54:39.275Z,8.20
2023-03-20T22:57:06.438Z,8.20
2023-03-20T22:59:34.564Z,8.20
2023-03-20T23:02:01.659Z,8.20
2023-03-20T23:04:30.207Z,8.20
2023-03-20T23:06:57.544Z,8.20
2023-03-20T23:09:24.595Z,8.30
2023-03-20T23:11:51.492Z,8.20
2023-03-20T23:14:21.679Z,8.30
2023-03-20T23:16:50.438Z,8.30
2023-03-20T23:19:17.407Z,8.30
2023-03-20T23:21:44.272Z,8.30
2023-03-20T23:24:11.626Z,8.40
2023-03-20T23:26:38.491Z,8.30
2023-03-20T23:29:06.141Z,8.30
2023-03-20T23:31:33.118Z,8.40
2023-03-20T23:34:02.969Z,8.40
2023-03-20T23:36:36.506Z,8.40
2023-03-20T23:39:12.138Z,8.40
2023-03-20T23:42:08.416Z,8.40
2023-03-20T23:44:26.536Z,8.40
2023-03-20T23:46:54.645Z,8.40
2023-03-20T23:49:22.206Z,8.40
2023-03-20T23:51:49.273Z,8.40
2023-03-20T23:54:16.222Z,8.40
2023-03-20T23:56:43.158Z,8.40
2023-03-20T23:59:25.504Z,8.50
